createdAt,value
2022-12-31T00:02:14.452Z,99774.69
2022-12-31T00:04:42.997Z,99780.34
2022-12-31T00:07:12.441Z,99787.13
2022-12-31T00:09:40.562Z,99797.53
2022-12-31T00:12:08.884Z,99802.87
2022-12-31T00:14:37.038Z,99799.28
2022-12-31T00:17:05.091Z,99800.66
2022-12-31T00:19:33.328Z,99797.00
2022-12-31T00:22:01.266Z,99796.28
2022-12-31T00:24:31.184Z,99802.75
2022-12-31T00:26:59.652Z,99808.25
2022-12-31T00:29:27.727Z,99811.19
2022-12-31T00:31:55.821Z,99815.72
2022-12-31T00:34:24.536Z,99819.50
2022-12-31T00:36:53.918Z,99811.34
2022-12-31T00:39:22.031Z,99810.22
2022-12-31T00:41:51.748Z,99805.16
2022-12-31T00:44:19.901Z,99806.84
2022-12-31T00:46:48.425Z,99815.41
2022-12-31T00:49:17.281Z,99809.66
2022-12-31T00:51:46.721Z,99816.94
2022-12-31T00:54:15.706Z,99806.41
2022-12-31T00:56:44.019Z,99809.91
2022-12-31T00:59:13.367Z,99807.09
2022-12-31T01:01:41.849Z,99820.34
2022-12-31T01:04:12.284Z,99816.69
2022-12-31T01:06:41.073Z,99804.03
2022-12-31T01:09:10.001Z,99809.50
2022-12-31T01:11:38.810Z,99818.94
2022-12-31T01:14:09.336Z,99817.53
2022-12-31T01:16:41.778Z,99819.78
2022-12-31T01:19:12.644Z,99822.88
2022-12-31T01:21:42.143Z,99826.53
2022-12-31T01:24:12.405Z,99824.28
2022-12-31T01:26:41.024Z,99830.63
2022-12-31T01:29:10.422Z,99836.66
2022-12-31T01:31:40.364Z,99848.47
2022-12-31T01:34:09.323Z,99842.00
2022-12-31T01:36:38.151Z,99839.63
2022-12-31T01:39:08.450Z,99836.09
2022-12-31T01:41:38.881Z,99833.28
2022-12-31T01:44:40.605Z,99849.31
2022-12-31T01:47:15.394Z,99838.34
2022-12-31T01:49:47.360Z,99840.91
2022-12-31T01:52:20.597Z,99832.16
2022-12-31T01:54:53.851Z,99834.28
2022-12-31T01:57:23.571Z,99829.34
2022-12-31T01:59:52.795Z,99827.25
2022-12-31T02:02:22.306Z,99835.66
2022-12-31T02:04:52.440Z,99841.44
2022-12-31T02:07:20.723Z,99848.78
2022-12-31T02:09:48.836Z,99841.84
2022-12-31T02:12:17.340Z,99836.22
2022-12-31T02:14:49.099Z,99829.91
2022-12-31T02:17:29.759Z,99834.41
2022-12-31T02:20:43.929Z,99837.34
2022-12-31T02:23:33.893Z,99833.41
2022-12-31T02:26:26.143Z,99843.81
2022-12-31T02:29:17.927Z,99834.81
2022-12-31T02:31:53.159Z,99835.81
2022-12-31T02:34:28.408Z,99834.41
2022-12-31T02:37:01.225Z,99846.50
2022-12-31T02:39:31.137Z,99852.72
2022-12-31T02:42:01.637Z,99842.69
2022-12-31T02:44:31.699Z,99843.69
2022-12-31T02:47:14.503Z,99841.16
2022-12-31T02:49:52.312Z,99840.63
2022-12-31T02:52:29.203Z,99840.63
2022-12-31T02:55:09.591Z,99832.16
2022-12-31T02:57:43.472Z,99824.81
2022-12-31T03:00:31.775Z,99812.44
2022-12-31T03:03:04.019Z,99815.94
2022-12-31T03:05:35.595Z,99817.66
2022-12-31T03:08:03.784Z,99811.03
2022-12-31T03:10:31.976Z,99810.19
2022-12-31T03:12:59.353Z,99799.62
2022-12-31T03:15:29.743Z,99805.16
2022-12-31T03:18:02.638Z,99802.87
2022-12-31T03:20:51.445Z,99794.00
2022-12-31T03:23:22.597Z,99790.91
2022-12-31T03:25:50.375Z,99791.03
2022-12-31T03:28:20.156Z,99793.00
2022-12-31T03:30:50.712Z,99798.34
2022-12-31T03:33:21.774Z,99796.38
2022-12-31T03:35:50.990Z,99798.62
2022-12-31T03:38:20.593Z,99797.13
2022-12-31T03:40:51.432Z,99800.03
2022-12-31T03:43:20.668Z,99796.66
2022-12-31T03:45:51.336Z,99786.06
2022-12-31T03:48:22.543Z,99769.34
2022-12-31T03:50:51.025Z,99776.94
2022-12-31T03:53:19.459Z,99759.97
2022-12-31T03:55:52.188Z,99766.63
2022-12-31T03:58:20.647Z,99758.59
2022-12-31T04:00:48.783Z,99745.31
2022-12-31T04:03:17.465Z,99755.75
2022-12-31T04:05:53.423Z,99754.19
2022-12-31T04:08:21.766Z,99743.06
2022-12-31T04:10:50.672Z,99730.94
2022-12-31T04:13:18.776Z,99734.87
2022-12-31T04:15:51.630Z,99741.97
2022-12-31T04:18:20.136Z,99730.22
2022-12-31T04:20:50.164Z,99734.87
2022-12-31T04:23:18.449Z,99743.59
2022-12-31T04:25:46.771Z,99748.75
2022-12-31T04:28:15.315Z,99744.81
2022-12-31T04:30:44.428Z,99745.59
2022-12-31T04:33:12.610Z,99724.53
2022-12-31T04:35:40.946Z,99726.63
2022-12-31T04:38:10.443Z,99728.19
2022-12-31T04:40:58.614Z,99726.06
2022-12-31T04:43:27.079Z,99716.78
2022-12-31T04:45:55.169Z,99716.56
2022-12-31T04:48:23.240Z,99718.84
2022-12-31T04:50:51.638Z,99717.22
2022-12-31T04:53:21.334Z,99719.00
2022-12-31T04:55:49.394Z,99719.94
2022-12-31T04:58:18.095Z,99720.72
2022-12-31T05:00:50.019Z,99721.16
2022-12-31T05:03:19.163Z,99718.28
2022-12-31T05:05:47.428Z,99724.94
2022-12-31T05:08:17.966Z,99713.47
2022-12-31T05:10:49.416Z,99727.81
2022-12-31T05:13:17.777Z,99724.66
2022-12-31T05:15:47.210Z,99720.63
2022-12-31T05:18:15.711Z,99714.47
2022-12-31T05:20:43.835Z,99703.25
2022-12-31T05:23:12.113Z,99701.78
2022-12-31T05:25:40.687Z,99707.75
2022-12-31T05:28:10.375Z,99698.50
2022-12-31T05:30:38.839Z,99702.91
2022-12-31T05:33:07.272Z,99698.44
2022-12-31T05:35:35.358Z,99696.06
2022-12-31T05:38:03.414Z,99696.59
2022-12-31T05:40:32.529Z,99696.34
2022-12-31T05:43:00.672Z,99701.06
2022-12-31T05:45:31.112Z,99701.34
2022-12-31T05:48:00.011Z,99709.47
2022-12-31T05:50:28.244Z,99709.84
2022-12-31T05:52:56.656Z,99698.66
2022-12-31T05:55:25.366Z,99703.41
2022-12-31T05:57:53.742Z,99697.13
2022-12-31T06:00:22.040Z,99702.97
2022-12-31T06:02:51.804Z,99705.31
2022-12-31T06:05:25.842Z,99686.31
2022-12-31T06:07:54.761Z,99677.72
2022-12-31T06:10:23.807Z,99684.94
2022-12-31T06:12:52.541Z,99684.78
2022-12-31T06:15:21.386Z,99684.94
2022-12-31T06:17:50.754Z,99695.44
2022-12-31T06:20:18.919Z,99695.75
2022-12-31T06:22:47.135Z,99709.47
2022-12-31T06:25:15.421Z,99715.56
2022-12-31T06:27:43.446Z,99714.44
2022-12-31T06:30:12.995Z,99712.41
2022-12-31T06:32:42.227Z,99724.44
2022-12-31T06:35:11.993Z,99728.78
2022-12-31T06:37:40.636Z,99735.84
2022-12-31T06:40:09.905Z,99730.78
2022-12-31T06:42:38.071Z,99724.84
2022-12-31T06:45:07.668Z,99725.56
2022-12-31T06:47:36.658Z,99726.56
2022-12-31T06:50:07.017Z,99725.22
2022-12-31T06:52:36.853Z,99726.28
2022-12-31T06:55:05.798Z,99730.84
2022-12-31T06:57:34.304Z,99732.94
2022-12-31T07:00:03.289Z,99725.44
2022-12-31T07:02:50.941Z,99712.69
2022-12-31T07:05:37.931Z,99721.22
2022-12-31T07:08:21.461Z,99728.72
2022-12-31T07:10:54.653Z,99724.44
2022-12-31T07:13:46.177Z,99731.66
2022-12-31T07:16:27.858Z,99744.94
2022-12-31T07:19:03.411Z,99748.53
2022-12-31T07:21:36.170Z,99758.75
2022-12-31T07:24:07.528Z,99764.53
2022-12-31T07:26:56.384Z,99763.38
2022-12-31T07:29:37.313Z,99765.34
2022-12-31T07:32:11.974Z,99761.94
2022-12-31T07:34:52.055Z,99761.66
2022-12-31T07:37:30.531Z,99767.88
2022-12-31T07:40:10.215Z,99760.34
2022-12-31T07:42:52.507Z,99775.78
2022-12-31T07:45:25.730Z,99774.25
2022-12-31T07:48:00.521Z,99772.25
2022-12-31T07:50:31.573Z,99764.66
2022-12-31T07:53:00.576Z,99767.44
2022-12-31T07:55:30.272Z,99776.09
2022-12-31T07:58:09.954Z,99785.59
2022-12-31T08:00:43.071Z,99793.03
2022-12-31T08:03:26.249Z,99791.25
2022-12-31T08:06:11.523Z,99785.44
2022-12-31T08:08:50.764Z,99788.91
2022-12-31T08:11:29.179Z,99792.03
2022-12-31T08:14:02.289Z,99796.19
2022-12-31T08:16:31.085Z,99793.00
2022-12-31T08:19:00.491Z,99793.94
2022-12-31T08:21:41.103Z,99791.69
2022-12-31T08:24:21.294Z,99807.00
2022-12-31T08:27:01.295Z,99807.16
2022-12-31T08:29:39.105Z,99810.44
2022-12-31T08:32:38.808Z,99805.53
2022-12-31T08:35:24.385Z,99809.44
2022-12-31T08:38:00.642Z,99811.59
2022-12-31T08:40:35.914Z,99815.78
2022-12-31T08:43:22.316Z,99823.59
2022-12-31T08:45:53.413Z,99825.06
2022-12-31T08:48:28.328Z,99824.91
2022-12-31T08:50:57.465Z,99829.31
2022-12-31T08:53:26.538Z,99822.28
2022-12-31T08:56:01.765Z,99824.91
2022-12-31T08:58:42.155Z,99824.97
2022-12-31T09:01:12.382Z,99809.34
2022-12-31T09:03:59.030Z,99823.28
2022-12-31T09:06:30.742Z,99836.44
2022-12-31T09:09:04.566Z,99827.91
2022-12-31T09:11:39.803Z,99840.47
2022-12-31T09:14:22.629Z,99840.66
2022-12-31T09:17:03.903Z,99845.56
2022-12-31T09:19:32.244Z,99847.72
2022-12-31T09:22:01.080Z,99856.00
2022-12-31T09:24:32.427Z,99858.00
2022-12-31T09:27:44.959Z,99861.88
2022-12-31T09:30:22.734Z,99868.44
2022-12-31T09:33:02.027Z,99874.16
2022-12-31T09:35:37.153Z,99866.75
2022-12-31T09:38:12.103Z,99878.50
2022-12-31T09:40:57.095Z,99872.66
2022-12-31T09:44:13.121Z,99883.06
2022-12-31T09:47:29.347Z,99892.66
2022-12-31T09:50:21.735Z,99890.66
2022-12-31T09:53:24.758Z,99878.87
2022-12-31T09:55:58.018Z,99894.19
2022-12-31T09:58:36.101Z,99885.56
2022-12-31T10:01:14.710Z,99897.03
2022-12-31T10:04:42.912Z,99887.44
2022-12-31T10:07:30.026Z,99895.09
2022-12-31T10:10:08.382Z,99883.94
2022-12-31T10:12:58.072Z,99894.87
2022-12-31T10:15:43.213Z,99890.59
2022-12-31T10:18:24.647Z,99868.75
2022-12-31T10:21:07.337Z,99871.69
2022-12-31T10:23:55.569Z,99860.16
2022-12-31T10:26:37.877Z,99868.00
2022-12-31T10:29:20.066Z,99884.31
2022-12-31T10:32:03.411Z,99884.16
2022-12-31T10:34:46.244Z,99888.06
2022-12-31T10:37:18.451Z,99890.38
2022-12-31T10:40:01.032Z,99889.84
2022-12-31T10:42:43.535Z,99895.00
2022-12-31T10:45:44.910Z,99893.97
2022-12-31T10:48:45.629Z,99894.28
2022-12-31T10:51:54.965Z,99902.59
2022-12-31T10:55:10.735Z,99892.81
2022-12-31T10:58:03.801Z,99901.56
2022-12-31T11:00:39.758Z,99897.22
2022-12-31T11:03:53.390Z,99898.72
2022-12-31T11:07:05.588Z,99896.47
2022-12-31T11:09:58.291Z,99889.63
2022-12-31T11:12:59.753Z,99891.75
2022-12-31T11:16:06.184Z,99884.50
2022-12-31T11:18:44.493Z,99896.69
2022-12-31T11:21:30.565Z,99905.00
2022-12-31T11:24:06.384Z,99906.88
2022-12-31T11:26:51.245Z,99900.16
2022-12-31T11:29:33.763Z,99907.72
2022-12-31T11:32:13.533Z,99900.19
2022-12-31T11:35:04.322Z,99906.78
2022-12-31T11:37:41.812Z,99899.94
2022-12-31T11:40:33.434Z,99901.53
2022-12-31T11:43:05.508Z,99897.44
2022-12-31T11:45:55.218Z,99903.47
2022-12-31T11:48:33.483Z,99891.69
2022-12-31T11:51:19.608Z,99886.50
2022-12-31T11:54:04.979Z,99893.69
2022-12-31T11:56:38.408Z,99889.31
2022-12-31T11:59:18.582Z,99892.22
2022-12-31T12:01:56.968Z,99890.50
2022-12-31T12:04:27.646Z,99883.25
2022-12-31T12:06:56.520Z,99906.09
2022-12-31T12:09:32.117Z,99904.59
2022-12-31T12:12:03.271Z,99903.16
2022-12-31T12:14:35.699Z,99914.38
2022-12-31T12:17:09.232Z,99905.41
2022-12-31T12:19:46.297Z,99916.28
2022-12-31T12:22:21.814Z,99913.22
2022-12-31T12:24:54.940Z,99917.22
2022-12-31T12:27:25.179Z,99912.88
2022-12-31T12:29:53.414Z,99899.88
2022-12-31T12:32:24.988Z,99918.31
2022-12-31T12:34:54.896Z,99897.31
2022-12-31T12:37:32.117Z,99903.69
2022-12-31T12:40:02.831Z,99885.66
2022-12-31T12:42:32.125Z,99903.63
2022-12-31T12:45:04.336Z,99923.69
2022-12-31T12:47:32.697Z,99921.25
2022-12-31T12:50:02.806Z,99928.16
2022-12-31T12:52:47.977Z,99913.66
2022-12-31T12:55:27.488Z,99922.16
2022-12-31T12:58:05.486Z,99925.22
2022-12-31T13:00:39.559Z,99924.22
2022-12-31T13:03:33.210Z,99926.34
2022-12-31T13:06:21.511Z,99917.94
2022-12-31T13:09:06.557Z,99899.00
2022-12-31T13:11:46.208Z,99912.19
2022-12-31T13:14:22.080Z,99912.19
2022-12-31T13:17:00.414Z,99909.16
2022-12-31T13:19:36.652Z,99918.34
2022-12-31T13:22:17.122Z,99916.59
2022-12-31T13:25:00.447Z,99922.69
2022-12-31T13:27:33.329Z,99926.03
2022-12-31T13:30:03.837Z,99933.84
2022-12-31T13:32:39.939Z,99938.94
2022-12-31T13:35:24.033Z,99940.37
2022-12-31T13:38:05.336Z,99933.66
2022-12-31T13:40:42.038Z,99942.25
2022-12-31T13:43:19.081Z,99942.47
2022-12-31T13:45:54.370Z,99943.62
2022-12-31T13:48:30.563Z,99949.53
2022-12-31T13:51:02.768Z,99955.28
2022-12-31T13:53:38.023Z,99976.13
2022-12-31T13:56:14.057Z,99968.38
2022-12-31T13:58:46.866Z,99987.09
2022-12-31T14:01:19.506Z,99993.37
2022-12-31T14:03:57.444Z,99995.19
2022-12-31T14:06:33.594Z,99997.81
2022-12-31T14:09:03.539Z,100000.63
2022-12-31T14:11:55.778Z,100005.38
2022-12-31T14:14:33.623Z,100002.69
2022-12-31T14:17:11.061Z,100012.97
2022-12-31T14:19:55.276Z,100005.56
2022-12-31T14:22:31.011Z,100021.28
2022-12-31T14:25:03.361Z,100004.06
2022-12-31T14:27:35.958Z,100018.72
2022-12-31T14:30:07.582Z,100023.28
2022-12-31T14:32:57.724Z,100020.37
2022-12-31T14:35:41.875Z,100032.16
2022-12-31T14:38:21.815Z,100025.84
2022-12-31T14:41:01.481Z,100022.28
2022-12-31T14:43:41.360Z,100035.44
2022-12-31T14:46:19.675Z,100025.31
2022-12-31T14:48:57.182Z,100018.22
2022-12-31T14:51:29.351Z,100007.78
2022-12-31T14:53:59.138Z,100017.78
2022-12-31T14:56:39.033Z,100010.22
2022-12-31T14:59:24.997Z,100015.31
2022-12-31T15:01:54.021Z,100011.25
2022-12-31T15:04:33.632Z,100014.94
2022-12-31T15:07:15.553Z,100017.16
2022-12-31T15:09:58.364Z,100030.97
2022-12-31T15:12:44.027Z,100041.34
2022-12-31T15:15:33.500Z,100033.28
2022-12-31T15:18:19.059Z,100035.12
2022-12-31T15:21:25.284Z,100050.31
2022-12-31T15:23:53.821Z,100055.72
2022-12-31T15:26:25.151Z,100051.13
2022-12-31T15:29:04.970Z,100056.84
2022-12-31T15:31:35.468Z,100062.09
2022-12-31T15:34:05.703Z,100049.63
2022-12-31T15:36:35.801Z,100048.59
2022-12-31T15:39:25.634Z,100049.09
2022-12-31T15:44:50.315Z,100041.47
2022-12-31T15:47:29.156Z,100062.00
2022-12-31T15:50:01.300Z,100073.97
2022-12-31T15:52:37.360Z,100084.59
2022-12-31T15:55:07.296Z,100076.16
2022-12-31T15:57:40.173Z,100082.09
2022-12-31T16:00:17.712Z,100096.66
2022-12-31T16:02:47.511Z,100091.13
2022-12-31T16:05:21.337Z,100101.37
2022-12-31T16:07:50.057Z,100110.16
2022-12-31T16:10:24.659Z,100118.13
2022-12-31T16:12:55.692Z,100098.25
2022-12-31T16:15:28.695Z,100113.44
2022-12-31T16:18:05.477Z,100107.31
2022-12-31T16:20:35.613Z,100098.78
2022-12-31T16:23:17.735Z,100111.59
2022-12-31T16:25:46.697Z,100113.19
2022-12-31T16:28:19.494Z,100113.94
2022-12-31T16:31:00.281Z,100106.53
2022-12-31T16:33:29.088Z,100101.66
2022-12-31T16:35:58.752Z,100096.94
2022-12-31T16:38:32.985Z,100107.84
2022-12-31T16:41:20.033Z,100098.06
2022-12-31T16:43:51.506Z,100095.53
2022-12-31T16:46:26.661Z,100107.81
2022-12-31T16:48:58.031Z,100104.06
2022-12-31T16:51:30.187Z,100106.44
2022-12-31T16:53:59.326Z,100107.06
2022-12-31T16:56:32.808Z,100096.50
2022-12-31T16:59:03.531Z,100095.31
2022-12-31T17:01:36.609Z,100086.22
2022-12-31T17:04:10.128Z,100093.31
2022-12-31T17:06:38.829Z,100098.16
2022-12-31T17:09:14.028Z,100094.94
2022-12-31T17:11:51.502Z,100096.44
2022-12-31T17:14:23.685Z,100106.34
2022-12-31T17:17:03.066Z,100101.50
2022-12-31T17:19:41.461Z,100107.06
2022-12-31T17:22:14.132Z,100090.53
2022-12-31T17:24:42.619Z,100082.56
2022-12-31T17:27:11.628Z,100081.94
2022-12-31T17:29:39.785Z,100081.03
2022-12-31T17:32:31.124Z,100072.97
2022-12-31T17:34:59.696Z,100072.91
2022-12-31T17:37:29.719Z,100073.25
2022-12-31T17:40:17.383Z,100074.84
2022-12-31T17:42:49.825Z,100070.00
2022-12-31T17:45:22.249Z,100071.81
2022-12-31T17:47:55.661Z,100075.72
2022-12-31T17:50:26.082Z,100078.19
2022-12-31T17:52:58.338Z,100082.00
2022-12-31T17:55:28.090Z,100078.84
2022-12-31T17:57:58.336Z,100083.78
2022-12-31T18:00:28.043Z,100092.16
2022-12-31T18:02:57.895Z,100076.22
2022-12-31T18:05:26.772Z,100077.56
2022-12-31T18:07:55.257Z,100080.53
2022-12-31T18:10:26.088Z,100068.72
2022-12-31T18:12:54.575Z,100082.34
2022-12-31T18:15:24.829Z,100087.72
2022-12-31T18:17:53.207Z,100085.19
2022-12-31T18:20:22.839Z,100081.16
2022-12-31T18:22:51.489Z,100080.47
2022-12-31T18:25:22.846Z,100083.84
2022-12-31T18:27:52.428Z,100089.91
2022-12-31T18:30:20.926Z,100089.13
2022-12-31T18:32:49.104Z,100092.50
2022-12-31T18:36:06.559Z,100084.13
2022-12-31T18:38:13.638Z,100077.84
2022-12-31T18:40:46.441Z,100083.59
2022-12-31T18:43:17.402Z,100083.59
2022-12-31T18:45:45.687Z,100086.75
2022-12-31T18:48:14.318Z,100092.25
2022-12-31T18:50:43.319Z,100087.22
2022-12-31T18:53:18.386Z,100089.28
2022-12-31T18:55:49.812Z,100089.28
2022-12-31T18:58:17.925Z,100089.47
2022-12-31T19:00:47.496Z,100095.00
2022-12-31T19:03:17.140Z,100088.09
2022-12-31T19:05:49.605Z,100088.56
2022-12-31T19:08:20.080Z,100088.56
2022-12-31T19:10:49.320Z,100078.41
2022-12-31T19:13:19.942Z,100089.06
2022-12-31T19:15:49.718Z,100083.50
2022-12-31T19:18:18.395Z,100088.88
2022-12-31T19:20:47.082Z,100087.50
2022-12-31T19:23:17.809Z,100078.59
2022-12-31T19:25:49.355Z,100076.94
2022-12-31T19:28:19.492Z,100074.97
2022-12-31T19:30:48.526Z,100074.47
2022-12-31T19:33:17.098Z,100071.44
2022-12-31T19:35:45.496Z,100072.62
2022-12-31T19:38:18.332Z,100068.31
2022-12-31T19:40:48.336Z,100058.56
2022-12-31T19:43:18.037Z,100062.94
2022-12-31T19:45:47.052Z,100058.34
2022-12-31T19:48:17.495Z,100065.78
2022-12-31T19:50:48.212Z,100065.47
2022-12-31T19:53:18.761Z,100063.38
2022-12-31T19:55:49.391Z,100058.13
2022-12-31T19:58:19.254Z,100056.44
2022-12-31T20:00:54.577Z,100053.38
2022-12-31T20:03:25.639Z,100061.44
2022-12-31T20:06:02.686Z,100056.75
2022-12-31T20:08:31.189Z,100054.91
2022-12-31T20:11:08.316Z,100044.22
2022-12-31T20:13:36.786Z,100055.53
2022-12-31T20:16:07.787Z,100060.34
2022-12-31T20:18:37.967Z,100049.91
2022-12-31T20:21:10.365Z,100061.44
2022-12-31T20:23:40.894Z,100046.84
2022-12-31T20:26:10.827Z,100054.13
2022-12-31T20:28:38.901Z,100060.06
2022-12-31T20:31:08.076Z,100046.69
2022-12-31T20:33:36.927Z,100050.87
2022-12-31T20:36:06.638Z,100047.06
2022-12-31T20:38:35.022Z,100057.06
2022-12-31T20:41:04.912Z,100062.53
2022-12-31T20:43:35.171Z,100063.13
2022-12-31T20:46:12.621Z,100065.16
2022-12-31T20:48:43.189Z,100077.16
2022-12-31T20:51:11.486Z,100079.59
2022-12-31T20:53:39.506Z,100091.53
2022-12-31T20:56:08.739Z,100086.91
2022-12-31T20:58:38.386Z,100092.44
2022-12-31T21:01:08.476Z,100092.19
2022-12-31T21:04:04.514Z,100100.25
2022-12-31T21:06:26.013Z,100104.16
2022-12-31T21:08:55.744Z,100104.63
2022-12-31T21:11:41.428Z,100111.53
2022-12-31T21:14:11.045Z,100111.75
2022-12-31T21:16:39.127Z,100103.53
2022-12-31T21:19:07.376Z,100112.44
2022-12-31T21:21:35.673Z,100101.78
2022-12-31T21:24:03.820Z,100102.78
2022-12-31T21:26:31.813Z,100105.63
2022-12-31T21:29:00.310Z,100100.78
2022-12-31T21:31:29.679Z,100095.72
2022-12-31T21:33:57.832Z,100092.59
2022-12-31T21:36:26.133Z,100102.97
2022-12-31T21:38:54.228Z,100103.78
2022-12-31T21:41:39.715Z,100108.13
2022-12-31T21:44:08.197Z,100108.75
2022-12-31T21:46:37.663Z,100107.22
2022-12-31T21:49:05.898Z,100106.66
2022-12-31T21:51:54.745Z,100097.97
2022-12-31T21:54:36.952Z,100110.66
2022-12-31T21:57:06.571Z,100115.34
2022-12-31T22:00:16.160Z,100122.09
2022-12-31T22:03:00.175Z,100129.81
2022-12-31T22:05:28.436Z,100135.09
2022-12-31T22:07:56.698Z,100142.06
2022-12-31T22:10:24.888Z,100143.09
2022-12-31T22:12:53.065Z,100144.28
2022-12-31T22:15:21.815Z,100141.31
2022-12-31T22:17:51.234Z,100136.53
2022-12-31T22:20:28.150Z,100142.56
2022-12-31T22:22:57.114Z,100134.41
2022-12-31T22:25:25.206Z,100143.25
2022-12-31T22:28:27.617Z,100144.53
2022-12-31T22:30:41.640Z,100145.94
2022-12-31T22:33:10.930Z,100152.84
2022-12-31T22:35:38.888Z,100160.13
2022-12-31T22:38:11.914Z,100164.47
2022-12-31T22:40:40.423Z,100162.63
2022-12-31T22:43:08.603Z,100164.62
2022-12-31T22:45:37.465Z,100173.09
2022-12-31T22:48:06.013Z,100173.53
2022-12-31T22:50:35.779Z,100177.34
2022-12-31T22:53:03.816Z,100180.03
2022-12-31T22:55:32.019Z,100175.78
2022-12-31T22:58:00.393Z,100170.19
2022-12-31T23:00:43.909Z,100185.16
2022-12-31T23:03:32.335Z,100194.91
2022-12-31T23:06:01.892Z,100185.31
2022-12-31T23:08:30.248Z,100180.97
2022-12-31T23:11:01.566Z,100188.63
2022-12-31T23:13:51.311Z,100191.16
2022-12-31T23:16:38.808Z,100202.38
2022-12-31T23:19:25.753Z,100197.16
2022-12-31T23:22:13.204Z,100198.44
2022-12-31T23:24:41.894Z,100204.22
2022-12-31T23:27:10.917Z,100219.19
2022-12-31T23:29:46.145Z,100210.28
2022-12-31T23:32:16.295Z,100217.50
2022-12-31T23:34:45.518Z,100218.34
2022-12-31T23:37:15.626Z,100229.94
2022-12-31T23:39:44.350Z,100236.00
2022-12-31T23:42:12.395Z,100234.56
2022-12-31T23:44:40.357Z,100239.47
2022-12-31T23:47:09.027Z,100243.84
2022-12-31T23:49:37.288Z,100243.72
2022-12-31T23:52:05.426Z,100247.69
2022-12-31T23:54:36.145Z,100249.22
2022-12-31T23:57:04.555Z,100256.91
2022-12-31T23:59:32.750Z,100260.59
